createdAt,value
2022-11-05T00:02:38.082Z,9.15
2022-11-05T00:05:30.517Z,7.15
2022-11-05T00:08:22.987Z,13.73
2022-11-05T00:10:55.107Z,7.53
2022-11-05T00:13:45.533Z,7.38
2022-11-05T00:19:10.225Z,5.53
2022-11-05T00:22:00.363Z,7.05
2022-11-05T00:24:50.526Z,5.88
2022-11-05T00:27:22.712Z,8.60
2022-11-05T00:29:54.662Z,7.30
2022-11-05T00:32:29.429Z,7.45
2022-11-05T00:35:01.343Z,5.40
2022-11-05T00:37:33.339Z,6.88
2022-11-05T00:40:06.522Z,5.72
2022-11-05T00:42:59.306Z,4.55
2022-11-05T00:45:31.521Z,5.90
2022-11-05T00:48:24.396Z,4.05
2022-11-05T00:50:56.315Z,5.50
2022-11-05T00:53:28.300Z,4.68
2022-11-05T00:56:00.720Z,4.70
2022-11-05T00:58:32.691Z,2.60
2022-11-05T01:01:05.183Z,2.45
2022-11-05T01:03:39.870Z,2.70
2022-11-05T01:06:14.303Z,2.88
2022-11-05T01:08:46.835Z,3.17
2022-11-05T01:11:35.296Z,3.15
2022-11-05T01:14:09.448Z,8.15
2022-11-05T01:16:41.880Z,2.00
2022-11-05T01:19:15.439Z,1.60
2022-11-05T01:21:47.390Z,2.47
2022-11-05T01:24:19.252Z,1.80
2022-11-05T01:26:51.182Z,3.13
2022-11-05T01:29:23.053Z,2.15
2022-11-05T01:31:54.980Z,2.92
2022-11-05T01:34:28.319Z,1.67
2022-11-05T01:37:00.235Z,4.05
2022-11-05T01:39:32.123Z,3.38
2022-11-05T01:42:05.748Z,2.30
2022-11-05T01:44:58.081Z,3.95
2022-11-05T01:47:40.031Z,1.90
2022-11-05T01:50:27.299Z,4.07
2022-11-05T01:53:12.105Z,2.53
2022-11-05T01:55:48.107Z,1.95
2022-11-05T01:58:22.774Z,4.45
2022-11-05T02:00:56.220Z,1.83
2022-11-05T02:03:28.996Z,5.93
2022-11-05T02:06:03.814Z,2.28
2022-11-05T02:08:47.242Z,1.90
2022-11-05T02:11:20.352Z,3.38
2022-11-05T02:13:52.689Z,1.38
2022-11-05T02:16:36.714Z,1.45
2022-11-05T02:19:39.084Z,1.60
2022-11-05T02:22:32.207Z,1.20
2022-11-05T02:25:27.901Z,3.35
2022-11-05T02:28:17.753Z,5.45
2022-11-05T02:30:55.108Z,3.10
2022-11-05T02:33:38.783Z,4.30
2022-11-05T02:36:25.472Z,2.80
2022-11-05T02:39:12.030Z,3.97
2022-11-05T02:42:03.494Z,4.07
2022-11-05T02:44:44.747Z,1.50
2022-11-05T02:47:25.958Z,6.45
2022-11-05T02:50:12.022Z,3.08
2022-11-05T02:52:51.502Z,1.35
2022-11-05T02:55:27.657Z,3.23
2022-11-05T02:58:02.107Z,1.33
2022-11-05T03:00:40.818Z,3.95
2022-11-05T03:03:18.616Z,1.40
2022-11-05T03:06:13.587Z,1.27
2022-11-05T03:08:57.715Z,0.85
2022-11-05T03:11:32.778Z,0.88
2022-11-05T03:14:17.356Z,0.60
2022-11-05T03:16:57.334Z,5.95
2022-11-05T03:19:39.683Z,0.82
2022-11-05T03:22:16.222Z,1.50
2022-11-05T03:24:53.234Z,3.90
2022-11-05T03:27:30.117Z,1.20
2022-11-05T03:30:05.572Z,1.30
2022-11-05T03:32:43.013Z,3.13
2022-11-05T03:35:23.070Z,0.60
2022-11-05T03:37:59.202Z,0.98
2022-11-05T03:40:35.057Z,4.30
2022-11-05T03:43:09.041Z,0.70
2022-11-05T03:45:48.600Z,0.88
2022-11-05T03:48:25.469Z,4.72
2022-11-05T03:51:03.100Z,0.88
2022-11-05T03:53:41.410Z,1.42
2022-11-05T03:56:20.383Z,0.40
2022-11-05T03:58:58.650Z,0.60
2022-11-05T04:01:31.652Z,0.73
2022-11-05T04:04:04.075Z,0.50
2022-11-05T04:06:56.011Z,0.80
2022-11-05T04:09:46.368Z,0.50
2022-11-05T04:15:09.034Z,0.70
2022-11-05T04:17:40.943Z,0.35
2022-11-05T04:20:31.685Z,0.75
2022-11-05T04:23:25.435Z,0.95
2022-11-05T04:25:57.344Z,0.60
2022-11-05T04:28:49.201Z,2.15
2022-11-05T04:31:21.171Z,0.40
2022-11-05T04:33:53.081Z,0.40
2022-11-05T04:36:25.010Z,1.75
2022-11-05T04:38:58.353Z,0.75
2022-11-05T04:41:30.273Z,0.57
2022-11-05T04:44:02.468Z,0.60
2022-11-05T04:46:34.392Z,3.13
2022-11-05T04:49:06.290Z,1.00
2022-11-05T04:51:38.182Z,1.05
2022-11-05T04:54:11.471Z,1.45
2022-11-05T04:56:43.407Z,1.73
2022-11-05T04:59:15.322Z,1.10
2022-11-05T05:01:51.620Z,1.33
2022-11-05T05:04:23.604Z,0.82
2022-11-05T05:06:55.523Z,1.00
2022-11-05T05:09:28.763Z,1.85
2022-11-05T05:12:02.554Z,0.55
2022-11-05T05:14:34.630Z,3.03
2022-11-05T05:17:06.588Z,1.48
2022-11-05T05:19:56.982Z,0.80
2022-11-05T05:25:03.477Z,1.20
2022-11-05T05:27:35.398Z,3.67
2022-11-05T05:30:09.044Z,3.13
2022-11-05T05:32:40.953Z,2.58
2022-11-05T05:35:12.941Z,2.72
2022-11-05T05:37:44.870Z,3.33
2022-11-05T05:40:18.294Z,3.88
2022-11-05T05:42:53.793Z,1.52
2022-11-05T05:45:25.706Z,1.83
2022-11-05T05:47:57.744Z,4.95
2022-11-05T05:50:29.820Z,2.47
2022-11-05T05:53:01.841Z,1.70
2022-11-05T05:55:35.586Z,2.30
2022-11-05T05:58:07.614Z,1.88
2022-11-05T06:00:39.541Z,3.00
2022-11-05T06:03:11.823Z,6.78
2022-11-05T06:05:43.995Z,4.43
2022-11-05T06:08:16.001Z,2.30
2022-11-05T06:10:52.407Z,2.70
2022-11-05T06:13:24.408Z,2.30
2022-11-05T06:16:00.374Z,3.72
2022-11-05T06:18:33.267Z,2.15
2022-11-05T06:21:07.222Z,3.53
2022-11-05T06:23:40.617Z,2.90
2022-11-05T06:26:16.657Z,2.55
2022-11-05T06:28:48.584Z,2.25
2022-11-05T06:31:20.683Z,1.70
2022-11-05T06:33:52.698Z,2.50
2022-11-05T06:36:24.640Z,2.70
2022-11-05T06:38:56.689Z,4.30
2022-11-05T06:41:30.092Z,2.65
2022-11-05T06:44:02.088Z,6.22
2022-11-05T06:46:34.119Z,2.95
2022-11-05T06:49:06.108Z,3.55
2022-11-05T06:51:38.067Z,5.20
2022-11-05T06:54:10.313Z,1.98
2022-11-05T06:56:43.599Z,1.88
2022-11-05T06:59:15.691Z,1.85
2022-11-05T07:01:47.676Z,1.90
2022-11-05T07:04:19.754Z,1.85
2022-11-05T07:06:51.658Z,2.33
2022-11-05T07:09:23.998Z,1.90
2022-11-05T07:11:57.361Z,3.10
2022-11-05T07:14:29.252Z,3.10
2022-11-05T07:17:01.186Z,9.13
2022-11-05T07:19:33.211Z,5.05
2022-11-05T07:22:05.125Z,4.45
2022-11-05T07:24:37.227Z,3.38
2022-11-05T07:27:10.525Z,7.00
2022-11-05T07:29:42.623Z,5.10
2022-11-05T07:32:14.579Z,2.70
2022-11-05T07:34:46.561Z,3.58
2022-11-05T07:37:18.546Z,2.33
2022-11-05T07:39:50.715Z,1.98
2022-11-05T07:42:24.036Z,3.47
2022-11-05T07:44:55.991Z,3.92
2022-11-05T07:47:27.875Z,2.70
2022-11-05T07:49:59.813Z,1.63
2022-11-05T07:52:32.303Z,1.70
2022-11-05T07:55:05.011Z,3.08
2022-11-05T07:57:45.537Z,4.25
2022-11-05T08:00:20.378Z,3.50
2022-11-05T08:03:07.243Z,6.13
2022-11-05T08:05:42.118Z,3.30
2022-11-05T08:08:15.653Z,3.75
2022-11-05T08:10:48.004Z,3.22
2022-11-05T08:13:21.502Z,4.20
2022-11-05T08:15:53.462Z,3.67
2022-11-05T08:18:31.671Z,4.28
2022-11-05T08:21:05.861Z,5.35
2022-11-05T08:23:39.088Z,5.32
2022-11-05T08:26:11.305Z,7.85
2022-11-05T08:28:44.930Z,4.63
2022-11-05T08:31:18.227Z,6.32
2022-11-05T08:33:50.572Z,6.07
2022-11-05T08:36:22.535Z,3.92
2022-11-05T08:38:54.753Z,4.90
2022-11-05T08:41:26.843Z,5.65
2022-11-05T08:44:00.177Z,8.23
2022-11-05T08:46:32.130Z,7.43
2022-11-05T08:49:04.612Z,8.45
2022-11-05T08:51:36.583Z,6.25
2022-11-05T08:54:08.545Z,6.68
2022-11-05T08:56:40.537Z,6.78
2022-11-05T08:59:13.838Z,7.95
2022-11-05T09:01:45.950Z,10.48
2022-11-05T09:04:17.997Z,6.63
2022-11-05T09:06:49.992Z,7.20
2022-11-05T09:09:21.969Z,5.68
2022-11-05T09:14:47.437Z,6.60
2022-11-05T09:17:21.546Z,6.72
2022-11-05T09:19:53.474Z,7.63
2022-11-05T09:22:25.472Z,7.78
2022-11-05T09:24:57.378Z,7.63
2022-11-05T09:27:29.384Z,7.30
2022-11-05T09:30:03.088Z,7.38
2022-11-05T09:32:35.107Z,6.97
2022-11-05T09:35:07.760Z,7.30
2022-11-05T09:37:39.698Z,6.72
2022-11-05T09:40:17.933Z,25.38
2022-11-05T09:42:52.538Z,9.65
2022-11-05T09:45:29.015Z,11.13
2022-11-05T09:48:05.420Z,7.15
2022-11-05T09:50:41.006Z,8.55
2022-11-05T09:53:15.937Z,7.88
2022-11-05T09:55:51.539Z,8.45
2022-11-05T09:58:36.190Z,9.18
2022-11-05T10:01:15.101Z,9.73
2022-11-05T10:03:50.886Z,9.50
2022-11-05T10:06:25.497Z,10.32
2022-11-05T10:09:03.802Z,7.40
2022-11-05T10:11:40.553Z,8.32
2022-11-05T10:14:17.240Z,12.10
2022-11-05T10:16:54.567Z,8.18
2022-11-05T10:19:33.567Z,10.73
2022-11-05T10:22:11.302Z,9.45
2022-11-05T10:24:47.097Z,7.68
2022-11-05T10:27:23.424Z,18.70
2022-11-05T10:29:55.660Z,8.57
2022-11-05T10:32:34.236Z,10.05
2022-11-05T10:35:08.576Z,7.38
2022-11-05T10:37:41.413Z,6.65
2022-11-05T10:40:20.049Z,9.13
2022-11-05T10:43:02.329Z,8.32
2022-11-05T10:45:45.463Z,8.10
2022-11-05T10:48:43.734Z,11.27
2022-11-05T10:51:16.922Z,8.95
2022-11-05T10:53:57.363Z,10.73
2022-11-05T10:56:37.430Z,9.75
2022-11-05T10:59:20.228Z,11.98
2022-11-05T11:02:01.216Z,10.15
2022-11-05T11:04:37.859Z,8.57
2022-11-05T11:07:21.974Z,8.60
2022-11-05T11:09:54.184Z,12.23
2022-11-05T11:12:31.443Z,12.65
2022-11-05T11:15:14.070Z,9.25
2022-11-05T11:17:46.124Z,9.23
2022-11-05T11:20:27.487Z,10.00
2022-11-05T11:23:02.253Z,12.60
2022-11-05T11:25:40.681Z,12.65
2022-11-05T11:28:19.296Z,17.15
2022-11-05T11:30:55.190Z,10.48
2022-11-05T11:33:29.219Z,11.48
2022-11-05T11:36:03.121Z,10.88
2022-11-05T11:38:36.852Z,13.40
2022-11-05T11:41:22.934Z,17.05
2022-11-05T11:43:58.849Z,10.73
2022-11-05T11:46:32.994Z,10.60
2022-11-05T11:49:06.589Z,11.77
2022-11-05T11:51:49.862Z,11.32
2022-11-05T11:54:28.862Z,12.57
2022-11-05T11:57:04.016Z,12.63
2022-11-05T12:00:06.641Z,19.17
2022-11-05T12:03:09.498Z,11.68
2022-11-05T12:05:47.160Z,15.45
2022-11-05T12:08:45.312Z,28.33
2022-11-05T12:11:25.246Z,12.02
2022-11-05T12:14:03.898Z,17.20
2022-11-05T12:17:02.999Z,14.55
2022-11-05T12:20:00.098Z,11.32
2022-11-05T12:22:51.184Z,13.23
2022-11-05T12:25:29.373Z,14.57
2022-11-05T12:28:19.599Z,12.60
2022-11-05T12:30:59.932Z,13.00
2022-11-05T12:36:23.406Z,13.95
2022-11-05T12:39:28.563Z,13.35
2022-11-05T12:42:05.696Z,11.80
2022-11-05T12:44:58.956Z,17.85
2022-11-05T12:47:49.511Z,12.20
2022-11-05T12:50:28.149Z,14.38
2022-11-05T12:53:28.397Z,15.75
2022-11-05T12:56:04.650Z,11.77
2022-11-05T12:58:44.396Z,12.55
2022-11-05T13:01:22.206Z,10.20
2022-11-05T13:03:58.116Z,19.17
2022-11-05T13:06:35.121Z,24.40
2022-11-05T13:09:13.296Z,12.55
2022-11-05T13:11:51.358Z,13.55
2022-11-05T13:14:30.210Z,11.60
2022-11-05T13:17:06.437Z,17.60
2022-11-05T13:19:43.499Z,16.58
2022-11-05T13:22:25.101Z,14.98
2022-11-05T13:25:02.529Z,16.35
2022-11-05T13:28:01.587Z,17.58
2022-11-05T13:30:38.233Z,17.20
2022-11-05T13:33:14.635Z,14.75
2022-11-05T13:36:12.522Z,18.42
2022-11-05T13:39:01.019Z,11.52
2022-11-05T13:41:48.472Z,10.77
2022-11-05T13:44:47.031Z,14.68
2022-11-05T13:47:43.318Z,13.07
2022-11-05T13:50:48.307Z,18.42
2022-11-05T13:53:49.926Z,12.93
2022-11-05T13:56:41.307Z,16.10
2022-11-05T13:59:42.338Z,17.13
2022-11-05T14:02:19.167Z,10.18
2022-11-05T14:05:00.788Z,13.98
2022-11-05T14:07:36.515Z,17.05
2022-11-05T14:10:21.595Z,21.35
2022-11-05T14:12:55.764Z,14.77
2022-11-05T14:15:30.327Z,15.32
2022-11-05T14:18:03.919Z,17.92
2022-11-05T14:20:46.648Z,12.60
2022-11-05T14:23:52.786Z,14.52
2022-11-05T14:26:26.112Z,11.48
2022-11-05T14:29:23.860Z,13.82
2022-11-05T14:32:13.599Z,14.40
2022-11-05T14:34:48.637Z,12.07
2022-11-05T14:37:41.707Z,36.95
2022-11-05T14:40:29.666Z,36.00
2022-11-05T14:43:04.578Z,22.52
2022-11-05T14:45:39.347Z,22.65
2022-11-05T14:48:30.857Z,22.38
2022-11-05T14:51:03.264Z,29.08
2022-11-05T14:53:39.590Z,22.63
2022-11-05T14:56:15.243Z,21.20
2022-11-05T14:58:47.247Z,14.93
2022-11-05T15:01:53.390Z,23.85
2022-11-05T15:04:27.748Z,16.40
2022-11-05T15:07:24.519Z,16.90
2022-11-05T15:10:07.203Z,17.60
2022-11-05T15:12:46.457Z,21.27
2022-11-05T15:15:22.814Z,21.05
2022-11-05T15:18:04.344Z,18.13
2022-11-05T15:20:40.341Z,17.08
2022-11-05T15:23:16.916Z,28.35
2022-11-05T15:26:02.420Z,20.55
2022-11-05T15:28:38.386Z,20.10
2022-11-05T15:31:26.798Z,14.10
2022-11-05T15:34:20.617Z,20.63
2022-11-05T15:36:55.940Z,13.63
2022-11-05T15:39:31.321Z,26.15
2022-11-05T15:42:11.623Z,23.88
2022-11-05T15:44:46.213Z,16.10
2022-11-05T15:47:21.489Z,14.18
2022-11-05T15:49:54.923Z,16.58
2022-11-05T15:52:33.757Z,14.77
2022-11-05T15:55:18.481Z,17.13
2022-11-05T15:57:58.195Z,16.02
2022-11-05T16:00:32.052Z,24.25
2022-11-05T16:03:07.134Z,27.92
2022-11-05T16:05:44.082Z,18.88
2022-11-05T16:08:20.173Z,20.17
2022-11-05T16:10:54.366Z,19.60
2022-11-05T16:13:34.645Z,18.90
2022-11-05T16:16:24.710Z,15.73
2022-11-05T16:18:56.631Z,19.33
2022-11-05T16:21:28.568Z,14.50
2022-11-05T16:24:00.792Z,18.30
2022-11-05T16:29:32.313Z,14.45
2022-11-05T16:32:14.639Z,11.40
2022-11-05T16:34:49.198Z,13.20
2022-11-05T16:37:23.826Z,13.43
2022-11-05T16:39:55.907Z,12.80
2022-11-05T16:42:48.513Z,12.68
2022-11-05T16:45:24.581Z,13.73
2022-11-05T16:47:56.473Z,12.13
2022-11-05T16:50:32.644Z,26.77
2022-11-05T16:53:04.585Z,14.18
2022-11-05T16:55:38.670Z,11.82
2022-11-05T16:58:22.053Z,12.65
2022-11-05T17:01:01.597Z,10.43
2022-11-05T17:03:33.700Z,13.60
2022-11-05T17:06:06.365Z,16.88
2022-11-05T17:08:38.399Z,9.18
2022-11-05T17:11:12.925Z,18.27
2022-11-05T17:13:45.121Z,16.33
2022-11-05T17:16:18.422Z,14.52
2022-11-05T17:18:51.109Z,12.27
2022-11-05T17:21:23.217Z,47.20
2022-11-05T17:23:55.145Z,16.77
2022-11-05T17:26:27.132Z,15.77
2022-11-05T17:28:59.452Z,15.60
2022-11-05T17:31:32.788Z,14.75
2022-11-05T17:34:05.292Z,16.25
2022-11-05T17:36:37.211Z,12.13
2022-11-05T17:39:10.982Z,12.68
2022-11-05T17:41:43.553Z,13.95
2022-11-05T17:44:15.718Z,15.90
2022-11-05T17:46:49.838Z,13.60
2022-11-05T17:49:21.760Z,17.85
2022-11-05T17:51:53.664Z,26.05
2022-11-05T17:54:25.658Z,18.17
2022-11-05T17:56:57.595Z,22.50
2022-11-05T17:59:30.013Z,21.55
2022-11-05T18:02:03.695Z,17.70
2022-11-05T18:04:35.666Z,29.23
2022-11-05T18:07:07.797Z,40.03
2022-11-05T18:09:39.914Z,23.38
2022-11-05T18:12:11.874Z,23.27
2022-11-05T18:14:43.811Z,27.83
2022-11-05T18:17:17.086Z,22.00
2022-11-05T18:19:49.008Z,22.58
2022-11-05T18:22:21.071Z,21.35
2022-11-05T18:24:53.681Z,23.00
2022-11-05T18:27:27.723Z,15.43
2022-11-05T18:29:59.775Z,14.35
2022-11-05T18:32:33.430Z,16.92
2022-11-05T18:35:06.709Z,16.52
2022-11-05T18:37:38.937Z,13.30
2022-11-05T18:40:11.703Z,12.15
2022-11-05T18:42:43.652Z,13.15
2022-11-05T18:45:15.574Z,12.40
2022-11-05T18:47:48.874Z,9.88
2022-11-05T18:50:20.840Z,11.70
2022-11-05T18:52:52.777Z,11.50
2022-11-05T18:55:25.041Z,11.85
2022-11-05T18:57:57.343Z,13.77
2022-11-05T19:00:29.256Z,14.02
2022-11-05T19:03:02.639Z,14.75
2022-11-05T19:05:35.242Z,15.98
2022-11-05T19:08:07.772Z,14.15
2022-11-05T19:10:40.464Z,14.15
2022-11-05T19:13:12.405Z,11.40
2022-11-05T19:15:44.564Z,14.13
2022-11-05T19:18:17.903Z,13.55
2022-11-05T19:20:49.837Z,14.40
2022-11-05T19:23:21.761Z,12.05
2022-11-05T19:25:53.788Z,15.05
2022-11-05T19:28:25.829Z,12.70
2022-11-05T19:30:57.769Z,16.48
2022-11-05T19:33:31.382Z,14.40
2022-11-05T19:36:05.814Z,13.52
2022-11-05T19:38:38.132Z,13.68
2022-11-05T19:41:12.044Z,15.32
2022-11-05T19:43:44.432Z,14.27
2022-11-05T19:46:18.699Z,16.27
2022-11-05T19:48:52.653Z,15.57
2022-11-05T19:51:26.589Z,17.67
2022-11-05T19:54:00.532Z,14.13
2022-11-05T19:56:34.462Z,13.30
2022-11-05T19:59:07.132Z,19.15
2022-11-05T20:01:39.161Z,19.17
2022-11-05T20:04:12.757Z,19.35
2022-11-05T20:06:45.017Z,19.63
2022-11-05T20:09:22.124Z,17.13
2022-11-05T20:11:56.612Z,22.35
2022-11-05T20:14:29.734Z,17.30
2022-11-05T20:17:01.656Z,21.77
2022-11-05T20:19:35.502Z,20.40
2022-11-05T20:22:07.425Z,20.63
2022-11-05T20:24:39.421Z,18.17
2022-11-05T20:27:11.411Z,18.52
2022-11-05T20:29:43.379Z,18.98
2022-11-05T20:32:15.318Z,18.75
2022-11-05T20:34:48.643Z,20.55
2022-11-05T20:37:20.590Z,21.65
2022-11-05T20:39:52.530Z,19.23
2022-11-05T20:42:24.489Z,20.73
2022-11-05T20:44:56.381Z,19.60
2022-11-05T20:47:28.471Z,21.15
2022-11-05T20:50:04.015Z,24.63
2022-11-05T20:52:35.912Z,23.83
2022-11-05T20:55:09.674Z,18.85
2022-11-05T20:57:41.625Z,24.23
2022-11-05T21:00:14.902Z,22.77
2022-11-05T21:02:46.889Z,19.50
2022-11-05T21:05:20.396Z,21.65
2022-11-05T21:07:52.431Z,22.95
2022-11-05T21:10:24.806Z,25.08
2022-11-05T21:12:56.715Z,20.73
2022-11-05T21:15:28.711Z,24.55
2022-11-05T21:18:01.096Z,21.55
2022-11-05T21:20:34.391Z,22.83
2022-11-05T21:23:06.301Z,19.95
2022-11-05T21:25:39.072Z,26.38
2022-11-05T21:28:12.451Z,22.58
2022-11-05T21:30:46.194Z,20.20
2022-11-05T21:33:19.149Z,19.33
2022-11-05T21:35:52.456Z,22.27
2022-11-05T21:38:24.931Z,21.95
2022-11-05T21:41:00.662Z,19.13
2022-11-05T21:43:33.041Z,25.17
2022-11-05T21:46:05.309Z,20.98
2022-11-05T21:48:37.380Z,20.15
2022-11-05T21:51:29.990Z,23.63
2022-11-05T21:54:20.086Z,17.63
2022-11-05T21:57:11.091Z,19.70
2022-11-05T21:59:49.145Z,21.02
2022-11-05T22:02:23.435Z,20.45
2022-11-05T22:04:57.451Z,17.00
2022-11-05T22:07:33.000Z,21.33
2022-11-05T22:10:10.747Z,18.58
2022-11-05T22:12:46.760Z,21.77
2022-11-05T22:15:18.733Z,14.23
2022-11-05T22:17:51.020Z,19.67
2022-11-05T22:20:22.931Z,18.13
2022-11-05T22:22:56.303Z,19.02
2022-11-05T22:25:28.274Z,16.60
2022-11-05T22:28:00.249Z,18.50
2022-11-05T22:30:34.544Z,16.23
2022-11-05T22:33:06.589Z,13.40
2022-11-05T22:35:39.483Z,16.77
2022-11-05T22:38:13.111Z,15.75
2022-11-05T22:40:45.334Z,14.88
2022-11-05T22:43:17.300Z,14.20
2022-11-05T22:45:49.260Z,16.13
2022-11-05T22:48:21.223Z,12.73
2022-11-05T22:50:53.145Z,13.63
2022-11-05T22:53:26.461Z,14.00
2022-11-05T22:55:58.408Z,14.07
2022-11-05T22:58:30.342Z,13.13
2022-11-05T23:01:03.026Z,12.13
2022-11-05T23:03:35.218Z,11.48
2022-11-05T23:06:30.500Z,9.73
2022-11-05T23:09:24.463Z,10.05
2022-11-05T23:11:57.443Z,10.75
2022-11-05T23:14:29.528Z,11.85
2022-11-05T23:17:20.137Z,10.57
2022-11-05T23:20:10.307Z,9.27
2022-11-05T23:23:00.475Z,11.48
2022-11-05T23:25:33.827Z,11.50
2022-11-05T23:28:09.854Z,8.43
2022-11-05T23:31:10.044Z,12.30
2022-11-05T23:33:41.940Z,10.18
2022-11-05T23:36:32.102Z,8.93
2022-11-05T23:39:04.197Z,10.50
2022-11-05T23:41:56.162Z,8.70
2022-11-05T23:44:46.406Z,8.05
2022-11-05T23:47:36.781Z,11.18
2022-11-05T23:52:40.691Z,7.22
2022-11-05T23:55:12.704Z,8.45
2022-11-05T23:57:46.270Z,6.82
